sensor_id;sensor_type;location;lat;lon;timestamp;temperature;humidity
78184;DHT22;67442;44.570;18.610;2023-02-23T00:01:59;2.30;98.30
78184;DHT22;67442;44.570;18.610;2023-02-23T00:04:30;2.40;98.30
78184;DHT22;67442;44.570;18.610;2023-02-23T00:07:02;2.30;98.20
78184;DHT22;67442;44.570;18.610;2023-02-23T00:09:28;2.20;98.20
78184;DHT22;67442;44.570;18.610;2023-02-23T00:12:02;2.10;98.20
78184;DHT22;67442;44.570;18.610;2023-02-23T00:14:34;2.10;98.20
78184;DHT22;67442;44.570;18.610;2023-02-23T00:17:06;2.00;98.20
78184;DHT22;67442;44.570;18.610;2023-02-23T00:19:39;2.00;98.30
78184;DHT22;67442;44.570;18.610;2023-02-23T00:22:08;1.90;98.30
78184;DHT22;67442;44.570;18.610;2023-02-23T00:24:36;1.90;98.50
78184;DHT22;67442;44.570;18.610;2023-02-23T00:27:03;2.00;98.80
78184;DHT22;67442;44.570;18.610;2023-02-23T00:29:35;2.00;98.80
78184;DHT22;67442;44.570;18.610;2023-02-23T00:32:05;2.10;99.00
78184;DHT22;67442;44.570;18.610;2023-02-23T00:34:36;2.10;98.90
78184;DHT22;67442;44.570;18.610;2023-02-23T00:37:04;2.00;98.50
78184;DHT22;67442;44.570;18.610;2023-02-23T00:39:33;1.90;98.50
78184;DHT22;67442;44.570;18.610;2023-02-23T00:42:00;1.90;98.40
78184;DHT22;67442;44.570;18.610;2023-02-23T00:44:31;1.80;98.30
78184;DHT22;67442;44.570;18.610;2023-02-23T00:46:59;1.70;98.30
78184;DHT22;67442;44.570;18.610;2023-02-23T00:49:27;1.70;98.40
78184;DHT22;67442;44.570;18.610;2023-02-23T00:51:54;1.70;98.50
78184;DHT22;67442;44.570;18.610;2023-02-23T00:54:21;1.70;98.50
78184;DHT22;67442;44.570;18.610;2023-02-23T00:56:47;1.80;98.60
78184;DHT22;67442;44.570;18.610;2023-02-23T00:59:16;1.90;98.70
78184;DHT22;67442;44.570;18.610;2023-02-23T01:01:44;2.00;98.60
78184;DHT22;67442;44.570;18.610;2023-02-23T01:04:12;1.90;98.60
78184;DHT22;67442;44.570;18.610;2023-02-23T01:06:39;1.90;98.50
78184;DHT22;67442;44.570;18.610;2023-02-23T01:09:15;1.90;98.70
78184;DHT22;67442;44.570;18.610;2023-02-23T01:11:47;1.90;98.70
78184;DHT22;67442;44.570;18.610;2023-02-23T01:14:17;1.80;98.50
78184;DHT22;67442;44.570;18.610;2023-02-23T01:16:45;1.80;98.40
78184;DHT22;67442;44.570;18.610;2023-02-23T01:19:12;1.60;98.30
78184;DHT22;67442;44.570;18.610;2023-02-23T01:21:43;1.60;98.50
78184;DHT22;67442;44.570;18.610;2023-02-23T01:24:15;1.60;98.60
78184;DHT22;67442;44.570;18.610;2023-02-23T01:26:44;1.50;98.50
78184;DHT22;67442;44.570;18.610;2023-02-23T01:29:16;1.50;98.50
78184;DHT22;67442;44.570;18.610;2023-02-23T01:31:45;1.50;98.80
78184;DHT22;67442;44.570;18.610;2023-02-23T01:34:13;1.40;98.40
78184;DHT22;67442;44.570;18.610;2023-02-23T01:36:42;1.40;98.20
78184;DHT22;67442;44.570;18.610;2023-02-23T01:39:15;1.40;98.00
78184;DHT22;67442;44.570;18.610;2023-02-23T01:41:43;1.40;97.90
78184;DHT22;67442;44.570;18.610;2023-02-23T01:46:43;1.30;98.00
78184;DHT22;67442;44.570;18.610;2023-02-23T01:49:16;1.30;98.30
78184;DHT22;67442;44.570;18.610;2023-02-23T01:54:29;1.40;98.50
78184;DHT22;67442;44.570;18.610;2023-02-23T01:57:00;1.30;98.40
78184;DHT22;67442;44.570;18.610;2023-02-23T02:02:00;1.50;98.30
78184;DHT22;67442;44.570;18.610;2023-02-23T02:04:37;1.50;98.20
78184;DHT22;67442;44.570;18.610;2023-02-23T02:07:26;1.50;98.40
78184;DHT22;67442;44.570;18.610;2023-02-23T02:09:55;1.50;98.60
78184;DHT22;67442;44.570;18.610;2023-02-23T02:12:38;1.50;99.00
78184;DHT22;67442;44.570;18.610;2023-02-23T02:15:06;1.50;99.00
78184;DHT22;67442;44.570;18.610;2023-02-23T02:17:52;1.40;99.00
78184;DHT22;67442;44.570;18.610;2023-02-23T02:23:46;1.40;99.20
78184;DHT22;67442;44.570;18.610;2023-02-23T02:47:06;1.40;98.40
78184;DHT22;67442;44.570;18.610;2023-02-23T02:52:36;1.30;98.70
78184;DHT22;67442;44.570;18.610;2023-02-23T02:57:38;1.50;98.80
78184;DHT22;67442;44.570;18.610;2023-02-23T03:00:11;1.60;98.80
78184;DHT22;67442;44.570;18.610;2023-02-23T03:02:59;1.60;98.70
78184;DHT22;67442;44.570;18.610;2023-02-23T03:05:49;1.50;98.50
78184;DHT22;67442;44.570;18.610;2023-02-23T03:11:36;1.50;98.70
78184;DHT22;67442;44.570;18.610;2023-02-23T03:14:32;1.60;98.80
78184;DHT22;67442;44.570;18.610;2023-02-23T03:29:39;1.70;98.80
78184;DHT22;67442;44.570;18.610;2023-02-23T03:36:00;1.50;98.40
78184;DHT22;67442;44.570;18.610;2023-02-23T03:41:57;1.20;98.30
78184;DHT22;67442;44.570;18.610;2023-02-23T03:44:44;1.20;98.40
78184;DHT22;67442;44.570;18.610;2023-02-23T03:47:36;1.20;98.50
78184;DHT22;67442;44.570;18.610;2023-02-23T03:50:43;1.20;98.50
78184;DHT22;67442;44.570;18.610;2023-02-23T03:56:26;1.10;98.50
78184;DHT22;67442;44.570;18.610;2023-02-23T03:59:13;1.10;98.70
78184;DHT22;67442;44.570;18.610;2023-02-23T04:01:59;1.10;98.60
78184;DHT22;67442;44.570;18.610;2023-02-23T04:04:46;1.20;98.40
78184;DHT22;67442;44.570;18.610;2023-02-23T04:07:33;1.10;98.30
78184;DHT22;67442;44.570;18.610;2023-02-23T04:10:18;1.10;98.40
78184;DHT22;67442;44.570;18.610;2023-02-23T04:13:13;1.10;98.60
78184;DHT22;67442;44.570;18.610;2023-02-23T04:16:03;1.20;98.70
78184;DHT22;67442;44.570;18.610;2023-02-23T04:18:32;1.20;98.70
78184;DHT22;67442;44.570;18.610;2023-02-23T04:21:00;1.10;98.60
78184;DHT22;67442;44.570;18.610;2023-02-23T04:23:31;1.10;98.40
78184;DHT22;67442;44.570;18.610;2023-02-23T04:25:58;1.00;98.30
78184;DHT22;67442;44.570;18.610;2023-02-23T04:28:26;1.00;98.40
78184;DHT22;67442;44.570;18.610;2023-02-23T04:30:53;1.00;98.50
78184;DHT22;67442;44.570;18.610;2023-02-23T04:33:21;1.00;98.70
78184;DHT22;67442;44.570;18.610;2023-02-23T04:35:53;0.90;98.50
78184;DHT22;67442;44.570;18.610;2023-02-23T04:38:24;0.90;98.60
78184;DHT22;67442;44.570;18.610;2023-02-23T04:40:51;1.10;98.70
78184;DHT22;67442;44.570;18.610;2023-02-23T04:43:19;1.20;98.60
78184;DHT22;67442;44.570;18.610;2023-02-23T04:45:46;1.20;98.50
78184;DHT22;67442;44.570;18.610;2023-02-23T04:48:13;1.20;98.60
78184;DHT22;67442;44.570;18.610;2023-02-23T04:50:41;1.10;98.50
78184;DHT22;67442;44.570;18.610;2023-02-23T04:53:07;1.00;98.10
78184;DHT22;67442;44.570;18.610;2023-02-23T04:55:35;0.90;98.10
78184;DHT22;67442;44.570;18.610;2023-02-23T04:58:07;0.80;98.20
78184;DHT22;67442;44.570;18.610;2023-02-23T05:00:39;0.70;98.30
78184;DHT22;67442;44.570;18.610;2023-02-23T05:03:07;0.70;98.50
78184;DHT22;67442;44.570;18.610;2023-02-23T05:05:33;0.70;98.70
78184;DHT22;67442;44.570;18.610;2023-02-23T05:08:01;0.70;98.80
78184;DHT22;67442;44.570;18.610;2023-02-23T05:10:33;0.80;99.20
78184;DHT22;67442;44.570;18.610;2023-02-23T05:13:00;0.80;99.30
78184;DHT22;67442;44.570;18.610;2023-02-23T05:15:31;0.80;99.40
78184;DHT22;67442;44.570;18.610;2023-02-23T05:17:58;0.90;99.30
78184;DHT22;67442;44.570;18.610;2023-02-23T05:20:25;0.90;99.20
78184;DHT22;67442;44.570;18.610;2023-02-23T05:22:53;0.80;99.20
78184;DHT22;67442;44.570;18.610;2023-02-23T05:25:24;0.80;99.50
78184;DHT22;67442;44.570;18.610;2023-02-23T05:27:51;0.90;99.60
78184;DHT22;67442;44.570;18.610;2023-02-23T05:30:18;0.90;99.90
78184;DHT22;67442;44.570;18.610;2023-02-23T05:32:49;0.90;99.80
78184;DHT22;67442;44.570;18.610;2023-02-23T05:35:21;1.00;99.70
78184;DHT22;67442;44.570;18.610;2023-02-23T05:37:51;1.10;99.70
78184;DHT22;67442;44.570;18.610;2023-02-23T05:40:19;1.10;99.90
78184;DHT22;67442;44.570;18.610;2023-02-23T05:42:46;1.20;99.90
78184;DHT22;67442;44.570;18.610;2023-02-23T05:45:13;1.20;99.90
78184;DHT22;67442;44.570;18.610;2023-02-23T05:47:44;1.20;99.80
78184;DHT22;67442;44.570;18.610;2023-02-23T05:50:12;1.20;99.70
78184;DHT22;67442;44.570;18.610;2023-02-23T05:52:42;1.10;99.70
78184;DHT22;67442;44.570;18.610;2023-02-23T05:55:10;1.00;99.50
78184;DHT22;67442;44.570;18.610;2023-02-23T05:57:55;1.00;99.30
78184;DHT22;67442;44.570;18.610;2023-02-23T06:00:23;0.90;99.10
78184;DHT22;67442;44.570;18.610;2023-02-23T06:02:50;0.80;99.30
78184;DHT22;67442;44.570;18.610;2023-02-23T06:05:18;0.80;99.40
78184;DHT22;67442;44.570;18.610;2023-02-23T06:07:45;0.80;99.70
78184;DHT22;67442;44.570;18.610;2023-02-23T06:10:13;0.80;99.90
78184;DHT22;67442;44.570;18.610;2023-02-23T06:12:40;0.80;99.80
78184;DHT22;67442;44.570;18.610;2023-02-23T06:15:09;0.90;99.90
78184;DHT22;67442;44.570;18.610;2023-02-23T06:17:40;1.00;99.90
78184;DHT22;67442;44.570;18.610;2023-02-23T06:20:07;1.10;99.70
78184;DHT22;67442;44.570;18.610;2023-02-23T06:22:36;1.30;99.60
78184;DHT22;67442;44.570;18.610;2023-02-23T06:25:05;1.40;99.70
78184;DHT22;67442;44.570;18.610;2023-02-23T06:27:41;1.50;99.40
78184;DHT22;67442;44.570;18.610;2023-02-23T06:30:10;1.60;98.80
78184;DHT22;67442;44.570;18.610;2023-02-23T06:32:39;1.70;98.30
78184;DHT22;67442;44.570;18.610;2023-02-23T06:35:07;1.80;98.00
78184;DHT22;67442;44.570;18.610;2023-02-23T06:37:35;2.00;98.10
78184;DHT22;67442;44.570;18.610;2023-02-23T06:40:03;2.10;98.00
78184;DHT22;67442;44.570;18.610;2023-02-23T06:42:30;2.20;98.00
78184;DHT22;67442;44.570;18.610;2023-02-23T06:45:04;2.40;97.60
78184;DHT22;67442;44.570;18.610;2023-02-23T06:47:32;2.60;97.20
78184;DHT22;67442;44.570;18.610;2023-02-23T06:49:59;2.70;97.00
78184;DHT22;67442;44.570;18.610;2023-02-23T06:52:28;2.90;97.00
78184;DHT22;67442;44.570;18.610;2023-02-23T06:54:56;3.10;96.80
78184;DHT22;67442;44.570;18.610;2023-02-23T06:57:22;3.20;96.70
78184;DHT22;67442;44.570;18.610;2023-02-23T06:59:50;3.40;96.50
78184;DHT22;67442;44.570;18.610;2023-02-23T07:02:17;3.50;96.30
78184;DHT22;67442;44.570;18.610;2023-02-23T07:04:44;3.70;96.20
78184;DHT22;67442;44.570;18.610;2023-02-23T07:07:12;3.90;95.90
78184;DHT22;67442;44.570;18.610;2023-02-23T07:09:43;4.00;95.70
78184;DHT22;67442;44.570;18.610;2023-02-23T07:12:10;4.20;95.20
78184;DHT22;67442;44.570;18.610;2023-02-23T07:14:42;4.30;94.80
78184;DHT22;67442;44.570;18.610;2023-02-23T07:17:12;4.40;94.80
78184;DHT22;67442;44.570;18.610;2023-02-23T07:19:39;4.50;94.80
78184;DHT22;67442;44.570;18.610;2023-02-23T07:22:06;4.60;94.80
78184;DHT22;67442;44.570;18.610;2023-02-23T07:24:34;4.80;94.80
78184;DHT22;67442;44.570;18.610;2023-02-23T07:27:06;5.10;94.90
78184;DHT22;67442;44.570;18.610;2023-02-23T07:29:34;5.30;94.50
78184;DHT22;67442;44.570;18.610;2023-02-23T07:32:05;5.50;94.30
78184;DHT22;67442;44.570;18.610;2023-02-23T07:34:36;5.70;94.20
78184;DHT22;67442;44.570;18.610;2023-02-23T07:37:03;5.80;94.10
78184;DHT22;67442;44.570;18.610;2023-02-23T07:39:30;6.00;94.20
78184;DHT22;67442;44.570;18.610;2023-02-23T07:41:58;6.20;94.10
78184;DHT22;67442;44.570;18.610;2023-02-23T07:44:29;6.40;94.20
78184;DHT22;67442;44.570;18.610;2023-02-23T07:46:56;6.60;94.00
78184;DHT22;67442;44.570;18.610;2023-02-23T07:49:23;6.80;93.90
78184;DHT22;67442;44.570;18.610;2023-02-23T07:51:54;7.10;93.60
78184;DHT22;67442;44.570;18.610;2023-02-23T07:54:25;7.30;92.90
78184;DHT22;67442;44.570;18.610;2023-02-23T07:56:56;7.60;92.60
78184;DHT22;67442;44.570;18.610;2023-02-23T07:59:24;7.80;92.20
78184;DHT22;67442;44.570;18.610;2023-02-23T08:01:51;8.00;91.90
78184;DHT22;67442;44.570;18.610;2023-02-23T08:04:22;8.20;91.40
78184;DHT22;67442;44.570;18.610;2023-02-23T08:06:53;8.30;91.20
78184;DHT22;67442;44.570;18.610;2023-02-23T08:09:21;8.50;90.70
78184;DHT22;67442;44.570;18.610;2023-02-23T08:11:51;8.50;90.10
78184;DHT22;67442;44.570;18.610;2023-02-23T08:14:19;8.50;90.50
78184;DHT22;67442;44.570;18.610;2023-02-23T08:16:48;8.70;90.10
78184;DHT22;67442;44.570;18.610;2023-02-23T08:19:16;8.90;90.10
78184;DHT22;67442;44.570;18.610;2023-02-23T08:21:43;9.00;89.50
78184;DHT22;67442;44.570;18.610;2023-02-23T08:24:11;9.10;88.80
78184;DHT22;67442;44.570;18.610;2023-02-23T08:26:38;9.30;88.50
78184;DHT22;67442;44.570;18.610;2023-02-23T08:29:05;9.50;88.50
78184;DHT22;67442;44.570;18.610;2023-02-23T08:31:33;9.60;87.40
78184;DHT22;67442;44.570;18.610;2023-02-23T08:34:00;9.80;86.80
78184;DHT22;67442;44.570;18.610;2023-02-23T08:36:28;9.90;86.40
78184;DHT22;67442;44.570;18.610;2023-02-23T08:38:55;10.20;85.40
78184;DHT22;67442;44.570;18.610;2023-02-23T08:41:23;10.40;84.70
78184;DHT22;67442;44.570;18.610;2023-02-23T08:44:10;10.60;83.40
78184;DHT22;67442;44.570;18.610;2023-02-23T08:46:37;10.70;81.50
78184;DHT22;67442;44.570;18.610;2023-02-23T08:49:04;10.70;81.90
78184;DHT22;67442;44.570;18.610;2023-02-23T08:51:31;10.80;80.20
78184;DHT22;67442;44.570;18.610;2023-02-23T08:54:00;11.00;80.50
78184;DHT22;67442;44.570;18.610;2023-02-23T08:56:32;11.20;80.20
78184;DHT22;67442;44.570;18.610;2023-02-23T08:58:59;11.30;79.60
78184;DHT22;67442;44.570;18.610;2023-02-23T09:01:27;11.50;79.30
78184;DHT22;67442;44.570;18.610;2023-02-23T09:03:58;11.70;78.10
78184;DHT22;67442;44.570;18.610;2023-02-23T09:06:26;11.60;77.50
78184;DHT22;67442;44.570;18.610;2023-02-23T09:08:53;11.80;77.90
78184;DHT22;67442;44.570;18.610;2023-02-23T09:11:22;11.90;77.00
78184;DHT22;67442;44.570;18.610;2023-02-23T09:13:49;12.10;76.10
78184;DHT22;67442;44.570;18.610;2023-02-23T09:16:16;12.20;76.30
78184;DHT22;67442;44.570;18.610;2023-02-23T09:18:44;12.40;76.10
78184;DHT22;67442;44.570;18.610;2023-02-23T09:21:16;12.50;75.40
78184;DHT22;67442;44.570;18.610;2023-02-23T09:23:47;12.60;74.70
78184;DHT22;67442;44.570;18.610;2023-02-23T09:26:19;12.80;73.30
78184;DHT22;67442;44.570;18.610;2023-02-23T09:28:46;12.90;73.00
78184;DHT22;67442;44.570;18.610;2023-02-23T09:31:17;12.90;72.00
78184;DHT22;67442;44.570;18.610;2023-02-23T09:33:43;13.00;72.00
78184;DHT22;67442;44.570;18.610;2023-02-23T09:36:18;13.10;71.70
78184;DHT22;67442;44.570;18.610;2023-02-23T09:38:47;13.30;70.70
78184;DHT22;67442;44.570;18.610;2023-02-23T09:47:12;13.70;69.90
78184;DHT22;67442;44.570;18.610;2023-02-23T09:49:47;13.80;69.20
78184;DHT22;67442;44.570;18.610;2023-02-23T09:52:23;13.90;68.60
78184;DHT22;67442;44.570;18.610;2023-02-23T09:54:51;14.00;68.20
78184;DHT22;67442;44.570;18.610;2023-02-23T09:57:37;14.10;68.40
78184;DHT22;67442;44.570;18.610;2023-02-23T10:02:58;14.10;66.90
78184;DHT22;67442;44.570;18.610;2023-02-23T10:05:31;14.20;65.70
78184;DHT22;67442;44.570;18.610;2023-02-23T10:08:07;14.30;66.40
78184;DHT22;67442;44.570;18.610;2023-02-23T10:16:41;14.60;65.70
78184;DHT22;67442;44.570;18.610;2023-02-23T10:19:26;14.70;64.40
78184;DHT22;67442;44.570;18.610;2023-02-23T10:21:56;14.60;63.90
78184;DHT22;67442;44.570;18.610;2023-02-23T10:24:44;14.50;64.60
78184;DHT22;67442;44.570;18.610;2023-02-23T10:27:31;14.50;65.80
78184;DHT22;67442;44.570;18.610;2023-02-23T10:30:03;14.80;65.00
78184;DHT22;67442;44.570;18.610;2023-02-23T10:35:17;15.20;63.70
78184;DHT22;67442;44.570;18.610;2023-02-23T10:37:46;15.20;61.40
78184;DHT22;67442;44.570;18.610;2023-02-23T10:40:26;15.20;63.30
78184;DHT22;67442;44.570;18.610;2023-02-23T10:43:11;14.90;62.00
78184;DHT22;67442;44.570;18.610;2023-02-23T10:45:43;14.70;63.80
78184;DHT22;67442;44.570;18.610;2023-02-23T10:48:19;14.80;64.00
78184;DHT22;67442;44.570;18.610;2023-02-23T10:50:50;15.00;61.90
78184;DHT22;67442;44.570;18.610;2023-02-23T10:53:33;15.20;63.00
78184;DHT22;67442;44.570;18.610;2023-02-23T10:56:12;15.30;61.00
78184;DHT22;67442;44.570;18.610;2023-02-23T10:58:57;15.20;60.10
78184;DHT22;67442;44.570;18.610;2023-02-23T11:01:40;15.30;61.40
78184;DHT22;67442;44.570;18.610;2023-02-23T11:06:47;15.30;61.40
78184;DHT22;67442;44.570;18.610;2023-02-23T11:12:24;15.80;59.70
78184;DHT22;67442;44.570;18.610;2023-02-23T11:14:57;16.00;59.60
78184;DHT22;67442;44.570;18.610;2023-02-23T11:17:32;16.10;59.10
78184;DHT22;67442;44.570;18.610;2023-02-23T11:22:34;15.90;58.50
78184;DHT22;67442;44.570;18.610;2023-02-23T11:25:15;16.00;58.60
78184;DHT22;67442;44.570;18.610;2023-02-23T11:27:47;16.30;58.00
78184;DHT22;67442;44.570;18.610;2023-02-23T11:30:19;16.30;57.40
78184;DHT22;67442;44.570;18.610;2023-02-23T11:32:55;16.20;58.30
78184;DHT22;67442;44.570;18.610;2023-02-23T11:35:29;16.00;57.80
78184;DHT22;67442;44.570;18.610;2023-02-23T11:37:57;16.00;58.40
78184;DHT22;67442;44.570;18.610;2023-02-23T11:40:29;16.30;57.40
78184;DHT22;67442;44.570;18.610;2023-02-23T11:43:05;16.50;56.30
78184;DHT22;67442;44.570;18.610;2023-02-23T11:45:50;16.60;55.30
78184;DHT22;67442;44.570;18.610;2023-02-23T11:48:37;16.70;54.90
78184;DHT22;67442;44.570;18.610;2023-02-23T11:51:10;16.80;54.70
78184;DHT22;67442;44.570;18.610;2023-02-23T11:53:48;16.70;54.30
78184;DHT22;67442;44.570;18.610;2023-02-23T11:56:19;16.70;54.60
78184;DHT22;67442;44.570;18.610;2023-02-23T11:58:53;16.80;55.70
78184;DHT22;67442;44.570;18.610;2023-02-23T12:01:47;16.90;54.40
78184;DHT22;67442;44.570;18.610;2023-02-23T12:04:28;17.00;54.60
78184;DHT22;67442;44.570;18.610;2023-02-23T12:07:26;17.00;54.20
78184;DHT22;67442;44.570;18.610;2023-02-23T12:10:22;17.00;53.00
78184;DHT22;67442;44.570;18.610;2023-02-23T12:15:47;17.00;53.40
78184;DHT22;67442;44.570;18.610;2023-02-23T12:26:38;17.50;52.70
78184;DHT22;67442;44.570;18.610;2023-02-23T12:31:56;18.00;51.60
78184;DHT22;67442;44.570;18.610;2023-02-23T12:35:11;18.30;50.70
78184;DHT22;67442;44.570;18.610;2023-02-23T12:37:59;18.50;50.20
78184;DHT22;67442;44.570;18.610;2023-02-23T12:43:49;19.20;47.30
78184;DHT22;67442;44.570;18.610;2023-02-23T12:51:42;18.50;49.30
78184;DHT22;67442;44.570;18.610;2023-02-23T12:54:11;17.90;51.10
78184;DHT22;67442;44.570;18.610;2023-02-23T12:57:01;17.50;52.10
78184;DHT22;67442;44.570;18.610;2023-02-23T13:05:50;16.90;53.00
78184;DHT22;67442;44.570;18.610;2023-02-23T13:08:46;16.80;54.40
78184;DHT22;67442;44.570;18.610;2023-02-23T13:16:36;16.80;54.90
78184;DHT22;67442;44.570;18.610;2023-02-23T13:19:30;16.90;53.10
78184;DHT22;67442;44.570;18.610;2023-02-23T13:24:38;17.10;52.50
78184;DHT22;67442;44.570;18.610;2023-02-23T13:29:48;17.20;51.20
78184;DHT22;67442;44.570;18.610;2023-02-23T13:32:26;17.30;51.10
78184;DHT22;67442;44.570;18.610;2023-02-23T13:34:59;17.50;50.30
78184;DHT22;67442;44.570;18.610;2023-02-23T13:37:53;17.50;49.90
78184;DHT22;67442;44.570;18.610;2023-02-23T13:40:58;17.40;48.80
78184;DHT22;67442;44.570;18.610;2023-02-23T13:43:41;17.30;50.00
78184;DHT22;67442;44.570;18.610;2023-02-23T13:51:49;16.90;51.00
78184;DHT22;67442;44.570;18.610;2023-02-23T13:56:58;16.80;50.70
78184;DHT22;67442;44.570;18.610;2023-02-23T13:59:49;16.60;51.90
78184;DHT22;67442;44.570;18.610;2023-02-23T14:02:35;16.50;52.60
78184;DHT22;67442;44.570;18.610;2023-02-23T14:07:33;16.60;52.80
78184;DHT22;67442;44.570;18.610;2023-02-23T14:10:28;16.50;52.60
78184;DHT22;67442;44.570;18.610;2023-02-23T14:15:44;16.40;53.20
78184;DHT22;67442;44.570;18.610;2023-02-23T14:23:47;16.40;53.20
78184;DHT22;67442;44.570;18.610;2023-02-23T14:26:34;16.40;53.80
78184;DHT22;67442;44.570;18.610;2023-02-23T14:29:24;16.30;54.00
78184;DHT22;67442;44.570;18.610;2023-02-23T14:32:01;16.30;54.20
78184;DHT22;67442;44.570;18.610;2023-02-23T14:34:51;16.20;54.00
78184;DHT22;67442;44.570;18.610;2023-02-23T14:37:33;16.20;54.70
78184;DHT22;67442;44.570;18.610;2023-02-23T14:40:22;16.00;54.80
78184;DHT22;67442;44.570;18.610;2023-02-23T14:46:11;15.90;54.80
78184;DHT22;67442;44.570;18.610;2023-02-23T14:49:07;15.90;55.40
78184;DHT22;67442;44.570;18.610;2023-02-23T14:51:44;15.80;55.50
78184;DHT22;67442;44.570;18.610;2023-02-23T14:56:50;15.60;56.40
78184;DHT22;67442;44.570;18.610;2023-02-23T14:59:38;15.50;57.20
78184;DHT22;67442;44.570;18.610;2023-02-23T15:02:20;15.40;57.70
78184;DHT22;67442;44.570;18.610;2023-02-23T15:04:49;15.30;57.70
78184;DHT22;67442;44.570;18.610;2023-02-23T15:07:36;15.30;57.70
78184;DHT22;67442;44.570;18.610;2023-02-23T15:10:28;15.20;58.60
78184;DHT22;67442;44.570;18.610;2023-02-23T15:13:00;15.10;58.50
78184;DHT22;67442;44.570;18.610;2023-02-23T15:15:33;15.00;59.10
78184;DHT22;67442;44.570;18.610;2023-02-23T15:18:04;14.90;59.30
78184;DHT22;67442;44.570;18.610;2023-02-23T15:20:35;14.90;59.40
78184;DHT22;67442;44.570;18.610;2023-02-23T15:23:03;14.80;60.00
78184;DHT22;67442;44.570;18.610;2023-02-23T15:25:38;14.80;59.90
78184;DHT22;67442;44.570;18.610;2023-02-23T15:28:24;14.80;60.10
78184;DHT22;67442;44.570;18.610;2023-02-23T15:30:54;14.80;59.80
78184;DHT22;67442;44.570;18.610;2023-02-23T15:33:25;14.70;60.10
78184;DHT22;67442;44.570;18.610;2023-02-23T15:38:31;14.70;60.40
78184;DHT22;67442;44.570;18.610;2023-02-23T15:41:03;14.60;59.90
78184;DHT22;67442;44.570;18.610;2023-02-23T15:43:32;14.50;60.20
78184;DHT22;67442;44.570;18.610;2023-02-23T15:46:02;14.50;60.90
78184;DHT22;67442;44.570;18.610;2023-02-23T15:48:46;14.50;60.70
78184;DHT22;67442;44.570;18.610;2023-02-23T15:51:43;14.40;61.60
78184;DHT22;67442;44.570;18.610;2023-02-23T15:54:18;14.30;62.60
78184;DHT22;67442;44.570;18.610;2023-02-23T15:56:55;14.30;62.00
78184;DHT22;67442;44.570;18.610;2023-02-23T15:59:28;14.20;62.50
78184;DHT22;67442;44.570;18.610;2023-02-23T16:02:03;14.20;62.80
78184;DHT22;67442;44.570;18.610;2023-02-23T16:04:39;14.10;63.30
78184;DHT22;67442;44.570;18.610;2023-02-23T16:07:21;14.00;63.30
78184;DHT22;67442;44.570;18.610;2023-02-23T16:09:55;13.90;64.00
78184;DHT22;67442;44.570;18.610;2023-02-23T16:12:31;13.90;63.40
78184;DHT22;67442;44.570;18.610;2023-02-23T16:15:27;13.90;64.40
78184;DHT22;67442;44.570;18.610;2023-02-23T16:17:56;13.70;65.50
78184;DHT22;67442;44.570;18.610;2023-02-23T16:20:34;13.60;67.00
78184;DHT22;67442;44.570;18.610;2023-02-23T16:23:04;13.60;66.60
78184;DHT22;67442;44.570;18.610;2023-02-23T16:25:33;13.50;66.90
78184;DHT22;67442;44.570;18.610;2023-02-23T16:28:12;13.30;67.60
78184;DHT22;67442;44.570;18.610;2023-02-23T16:33:27;13.20;68.90
78184;DHT22;67442;44.570;18.610;2023-02-23T16:41:05;13.10;70.70
78184;DHT22;67442;44.570;18.610;2023-02-23T16:43:36;13.00;70.20
78184;DHT22;67442;44.570;18.610;2023-02-23T16:46:02;12.90;71.10
78184;DHT22;67442;44.570;18.610;2023-02-23T16:48:30;12.80;71.10
78184;DHT22;67442;44.570;18.610;2023-02-23T16:50:57;12.70;72.20
78184;DHT22;67442;44.570;18.610;2023-02-23T16:53:25;12.60;73.10
78184;DHT22;67442;44.570;18.610;2023-02-23T16:55:55;12.50;73.60
78184;DHT22;67442;44.570;18.610;2023-02-23T16:58:27;12.40;74.20
78184;DHT22;67442;44.570;18.610;2023-02-23T17:01:00;12.40;76.20
78184;DHT22;67442;44.570;18.610;2023-02-23T17:03:28;12.30;78.80
78184;DHT22;67442;44.570;18.610;2023-02-23T17:05:59;12.30;79.10
78184;DHT22;67442;44.570;18.610;2023-02-23T17:08:28;12.20;79.20
78184;DHT22;67442;44.570;18.610;2023-02-23T17:10:57;12.10;80.20
78184;DHT22;67442;44.570;18.610;2023-02-23T17:13:28;12.00;82.50
78184;DHT22;67442;44.570;18.610;2023-02-23T17:15:58;11.90;84.60
78184;DHT22;67442;44.570;18.610;2023-02-23T17:18:29;11.90;85.80
78184;DHT22;67442;44.570;18.610;2023-02-23T17:20:58;11.90;87.10
78184;DHT22;67442;44.570;18.610;2023-02-23T17:23:28;11.90;86.60
78184;DHT22;67442;44.570;18.610;2023-02-23T17:26:05;11.80;89.30
78184;DHT22;67442;44.570;18.610;2023-02-23T17:28:32;11.70;90.00
78184;DHT22;67442;44.570;18.610;2023-02-23T17:31:00;11.60;90.80
78184;DHT22;67442;44.570;18.610;2023-02-23T17:33:28;11.60;91.60
78184;DHT22;67442;44.570;18.610;2023-02-23T17:36:00;11.60;92.40
78184;DHT22;67442;44.570;18.610;2023-02-23T17:38:32;11.40;92.70
78184;DHT22;67442;44.570;18.610;2023-02-23T17:41:01;11.50;93.40
78184;DHT22;67442;44.570;18.610;2023-02-23T17:43:28;11.40;94.30
78184;DHT22;67442;44.570;18.610;2023-02-23T17:45:55;11.30;94.20
78184;DHT22;67442;44.570;18.610;2023-02-23T17:48:23;11.30;94.90
78184;DHT22;67442;44.570;18.610;2023-02-23T17:50:57;11.30;95.00
78184;DHT22;67442;44.570;18.610;2023-02-23T17:53:24;11.20;94.30
78184;DHT22;67442;44.570;18.610;2023-02-23T17:55:56;11.20;94.50
78184;DHT22;67442;44.570;18.610;2023-02-23T17:58:23;11.20;94.60
78184;DHT22;67442;44.570;18.610;2023-02-23T18:00:58;11.20;94.70
78184;DHT22;67442;44.570;18.610;2023-02-23T18:03:31;11.10;94.80
78184;DHT22;67442;44.570;18.610;2023-02-23T18:06:18;11.10;95.00
78184;DHT22;67442;44.570;18.610;2023-02-23T18:08:45;11.10;94.90
78184;DHT22;67442;44.570;18.610;2023-02-23T18:11:16;11.20;94.30
78184;DHT22;67442;44.570;18.610;2023-02-23T18:13:45;11.30;94.20
78184;DHT22;67442;44.570;18.610;2023-02-23T18:16:12;11.20;94.20
78184;DHT22;67442;44.570;18.610;2023-02-23T18:18:40;11.30;94.20
78184;DHT22;67442;44.570;18.610;2023-02-23T18:21:15;11.20;94.40
78184;DHT22;67442;44.570;18.610;2023-02-23T18:23:42;11.20;94.50
78184;DHT22;67442;44.570;18.610;2023-02-23T18:26:11;11.20;94.70
78184;DHT22;67442;44.570;18.610;2023-02-23T18:28:37;11.20;95.00
78184;DHT22;67442;44.570;18.610;2023-02-23T18:31:05;11.20;95.20
78184;DHT22;67442;44.570;18.610;2023-02-23T18:33:33;11.10;95.00
78184;DHT22;67442;44.570;18.610;2023-02-23T18:36:00;11.10;95.00
78184;DHT22;67442;44.570;18.610;2023-02-23T18:38:29;11.00;94.90
78184;DHT22;67442;44.570;18.610;2023-02-23T18:40:57;11.00;95.20
78184;DHT22;67442;44.570;18.610;2023-02-23T18:43:29;11.00;95.50